Guntown, Mississippi
Current Conditions -  °F | °C
As of 12:53 AM on Friday 28 Nov 2014 (Local Time) from KTUP Reporting Station
Clear Clear  
Wind Chill: 29°   Ceiling: Unl
Heat Index: 29°   Visibility: 10mi
Dew Point: 25°   Wind: 0mph
Humidity: 85%   Direction: NA
Pressure: 30.47"   Gusts: NA
Location:  34.44°N, 88.66°W
Report Text: KTUP 280653Z AUTO 00000KT 10SM CLR M02/M04 A3047 RMK AO2 SLP318 T10171039 $
Loading
Personal Weather Stations






























Interactive Weather Map New forecast layout! Learn more

10-Day Weather Forecast

Advertisements
Track Severe Weather on mobile